Time;durP1;ratioP1;P1;durP2;ratioP2;P2;SDS_P1;SDS_P2;PMS_P1;PMS_P2;Temp;Humidity;BMP_temperature;BMP_pressure;BME280_temperature;BME280_humidity;BME280_pressure;Samples;Min_cycle;Max_cycle;Signal;HPM_P1;HPM_P2
2023/01/21 00:00:10;;;;;;;10.05;3.05;;;;;;;21.92;41.49;101223.28;21065298;28;20176;-64
2023/01/21 00:10:12;;;;;;;5.35;2.67;;;;;;;21.88;41.33;101220.19;21077861;28;20097;-65
2023/01/21 00:20:13;;;;;;;11.60;3.15;;;;;;;21.89;41.65;101232.19;21069044;28;20113;-64
2023/01/21 00:30:15;;;;;;;6.47;2.50;;;;;;;21.88;41.30;101234.13;21073753;28;20234;-64
2023/01/21 00:40:16;;;;;;;10.10;2.88;;;;;;;21.87;41.43;101234.44;21059791;28;20399;-64
2023/01/21 00:50:18;;;;;;;3.95;2.30;;;;;;;21.85;41.25;101236.63;21061807;28;20036;-64
2023/01/21 01:00:19;;;;;;;6.80;2.40;;;;;;;21.72;41.43;101224.97;21076707;28;20040;-65
2023/01/21 01:10:21;;;;;;;7.68;2.60;;;;;;;21.80;41.32;101266.16;21072067;28;20053;-64
2023/01/21 01:20:22;;;;;;;7.93;2.22;;;;;;;21.68;41.28;101262.00;21067793;28;20048;-64
2023/01/21 01:30:24;;;;;;;6.55;2.00;;;;;;;21.78;41.09;101307.41;21046529;28;20040;-63
2023/01/21 01:40:25;;;;;;;4.03;2.10;;;;;;;21.73;41.17;101321.34;21068314;28;20039;-64
2023/01/21 01:50:34;;;;;;;4.22;2.10;;;;;;;21.74;41.18;101333.31;21026232;28;20047;-65
2023/01/21 02:00:35;;;;;;;4.68;2.08;;;;;;;21.66;41.08;101331.06;21069194;28;20032;-68
2023/01/21 02:10:37;;;;;;;3.95;1.70;;;;;;;21.69;40.87;101348.06;21056292;28;20044;-65
2023/01/21 02:21:12;;;;;;;2.88;1.67;;;;;;;21.62;41.01;101357.78;21071670;28;20036;-64
2023/01/21 02:31:45;;;;;;;6.95;1.65;;;;;;;21.61;40.98;101353.34;21064292;28;20036;-64
2023/01/21 02:42:02;;;;;;;2.95;1.40;;;;;;;21.62;40.81;101375.34;21075194;28;20048;-65
2023/01/21 02:52:06;;;;;;;3.65;1.83;;;;;;;21.67;40.79;101372.59;21057541;28;20066;-64
2023/01/21 03:02:11;;;;;;;4.90;1.73;;;;;;;21.71;40.85;101393.19;21061768;28;20089;-65
2023/01/21 03:12:12;;;;;;;5.45;1.77;;;;;;;21.75;40.67;101385.94;21080327;28;20070;-66
2023/01/21 03:22:18;;;;;;;3.83;1.40;;;;;;;21.78;40.68;101392.94;21084315;28;20040;-66
2023/01/21 03:32:25;;;;;;;3.40;1.38;;;;;;;21.81;40.48;101392.41;21082017;28;20101;-66
2023/01/21 03:42:26;;;;;;;3.55;1.40;;;;;;;21.83;40.68;101393.78;21012161;28;20079;-66
2023/01/21 03:52:28;;;;;;;2.78;1.27;;;;;;;21.69;40.31;101381.50;21023312;28;20483;-65
2023/01/21 04:02:29;;;;;;;4.32;1.27;;;;;;;21.86;40.82;101413.84;21084122;28;20040;-66
2023/01/21 04:12:30;;;;;;;3.38;1.20;;;;;;;21.91;40.79;101416.66;21081640;28;20036;-66
2023/01/21 04:22:35;;;;;;;2.85;1.55;;;;;;;21.87;40.54;101421.94;21080398;28;20028;-66
2023/01/21 04:32:37;;;;;;;4.53;1.38;;;;;;;21.93;40.52;101418.03;21081604;28;20039;-66
2023/01/21 04:42:40;;;;;;;2.90;1.33;;;;;;;21.96;40.45;101438.94;21075178;28;20058;-65
2023/01/21 04:52:42;;;;;;;2.90;1.27;;;;;;;21.97;40.33;101432.25;21079435;28;20097;-65
2023/01/21 05:02:43;;;;;;;1.98;1.10;;;;;;;21.95;40.10;101413.03;21078446;28;20478;-65
2023/01/21 05:12:47;;;;;;;1.85;1.13;;;;;;;21.96;39.99;101409.13;21077252;28;20044;-66
2023/01/21 05:22:49;;;;;;;3.55;1.20;;;;;;;21.89;39.65;101382.63;21078634;28;20040;-66
2023/01/21 05:32:56;;;;;;;1.30;1.10;;;;;;;21.84;39.39;101380.69;21076349;28;20048;-66
2023/01/21 05:42:58;;;;;;;1.00;0.90;;;;;;;21.87;39.56;101388.50;21068672;28;20537;-66
2023/01/21 05:52:59;;;;;;;1.83;1.00;;;;;;;21.88;39.37;101408.81;21075884;28;20076;-67
2023/01/21 06:03:01;;;;;;;3.50;1.27;;;;;;;21.94;39.28;101407.72;21075683;28;20051;-66
2023/01/21 06:13:03;;;;;;;1.77;1.20;;;;;;;21.93;39.18;101417.19;21075096;28;20556;-65
2023/01/21 06:23:13;;;;;;;1.60;1.00;;;;;;;21.82;39.28;101408.81;21087005;28;20040;-66
2023/01/21 06:33:15;;;;;;;1.35;1.02;;;;;;;21.90;39.15;101440.03;21091402;28;20372;-66
2023/01/21 06:43:16;;;;;;;0.77;0.70;;;;;;;21.87;39.04;101452.56;21090084;28;20032;-66
2023/01/21 06:53:20;;;;;;;1.05;0.90;;;;;;;21.85;38.90;101479.03;21089481;28;20044;-66
2023/01/21 07:03:22;;;;;;;1.33;1.00;;;;;;;21.82;38.56;101497.97;21089218;28;20032;-66
2023/01/21 07:13:26;;;;;;;1.80;0.95;;;;;;;21.80;38.45;101505.75;21085412;28;20044;-65
2023/01/21 07:23:29;;;;;;;1.20;0.90;;;;;;;21.72;38.66;101506.31;21082896;28;20415;-66
2023/01/21 07:33:30;;;;;;;1.20;0.80;;;;;;;21.56;38.41;101497.03;21083683;28;20074;-65
2023/01/21 07:43:43;;;;;;;0.70;0.70;;;;;;;21.62;38.67;101517.38;21082250;28;20066;-66
2023/01/21 07:53:44;;;;;;;0.70;0.70;;;;;;;21.70;38.59;101536.34;21079035;28;20391;-65
2023/01/21 08:03:46;;;;;;;1.13;1.00;;;;;;;21.72;38.62;101520.22;21076737;28;20040;-66
2023/01/21 08:13:49;;;;;;;1.00;0.90;;;;;;;21.76;39.00;101515.78;21078664;28;20059;-66
2023/01/21 08:23:50;;;;;;;0.88;0.80;;;;;;;21.78;38.84;101530.28;21077486;28;20070;-66
2023/01/21 08:33:56;;;;;;;1.02;0.77;;;;;;;21.82;38.56;101539.75;21076883;28;20048;-66
2023/01/21 08:43:58;;;;;;;1.52;0.90;;;;;;;21.85;38.60;101541.16;21073985;28;20074;-65
2023/01/21 08:53:59;;;;;;;1.10;0.90;;;;;;;21.89;38.61;101555.38;21077876;28;20105;-66
2023/01/21 09:04:03;;;;;;;0.68;0.60;;;;;;;21.92;38.68;101557.63;21074555;28;20395;-66
2023/01/21 09:14:05;;;;;;;1.10;1.00;;;;;;;21.93;38.20;101574.06;21075423;28;20040;-66
2023/01/21 09:24:07;;;;;;;0.82;0.75;;;;;;;21.89;38.15;101594.38;21077828;28;20028;-66
2023/01/21 09:34:09;;;;;;;0.80;0.80;;;;;;;21.96;38.08;101603.34;21074357;28;20487;-65
2023/01/21 09:44:45;;;;;;;1.00;0.90;;;;;;;21.92;38.47;101618.94;21076482;28;20043;-66
2023/01/21 09:54:50;;;;;;;0.70;0.70;;;;;;;21.96;37.96;101611.72;21088386;28;20111;-66
2023/01/21 10:05:17;;;;;;;0.60;0.60;;;;;;;21.95;38.00;101630.38;21101550;28;20047;-66
2023/01/21 10:15:32;;;;;;;1.45;0.93;;;;;;;21.94;38.13;101655.72;21101872;28;20040;-66
2023/01/21 10:25:36;;;;;;;0.90;0.90;;;;;;;21.94;37.72;101658.50;21102582;28;20631;-66
2023/01/21 10:35:43;;;;;;;1.08;0.95;;;;;;;21.94;37.59;101683.56;21102161;28;20048;-66
2023/01/21 10:46:16;;;;;;;1.13;1.00;;;;;;;21.93;37.50;101698.63;21101403;28;20028;-66
2023/01/21 10:56:42;;;;;;;0.85;0.73;;;;;;;21.88;38.04;101712.53;21082559;28;20048;-66
2023/01/21 11:06:47;;;;;;;0.82;0.82;;;;;;;21.85;37.57;101708.31;21091234;28;20052;-66
2023/01/21 11:16:49;;;;;;;0.90;0.90;;;;;;;21.90;37.59;101744.59;21084098;28;20135;-65
2023/01/21 11:26:57;;;;;;;0.77;0.70;;;;;;;21.88;37.78;101780.25;21083900;28;20551;-65
2023/01/21 11:37:02;;;;;;;0.93;0.93;;;;;;;21.87;37.45;101800.03;21075794;28;20101;-66
2023/01/21 11:47:34;;;;;;;0.70;0.70;;;;;;;21.75;37.81;101820.53;21072870;28;20040;-66
2023/01/21 11:57:35;;;;;;;0.60;0.60;;;;;;;21.83;37.52;101845.13;21082556;28;20051;-64
2023/01/21 12:07:41;;;;;;;0.90;0.90;;;;;;;21.62;37.24;101815.41;21078882;28;20578;-64
2023/01/21 12:18:07;;;;;;;0.70;0.70;;;;;;;21.72;37.64;101853.66;21081425;28;20048;-65
2023/01/21 12:28:16;;;;;;;2.38;0.80;;;;;;;21.41;38.52;101830.25;21028851;28;20048;-64
2023/01/21 12:38:19;;;;;;;0.90;0.90;;;;;;;21.68;38.20;101892.34;21021544;28;20449;-64
2023/01/21 12:48:34;;;;;;;4.68;0.80;;;;;;;21.57;38.26;101894.16;21007686;28;20488;-63
2023/01/21 12:58:41;;;;;;;0.80;0.80;;;;;;;21.67;38.58;101918.53;21059817;28;20043;-65
2023/01/21 13:09:09;;;;;;;0.93;0.75;;;;;;;21.70;38.64;101945.84;21062915;28;20055;-65
2023/01/21 13:19:15;;;;;;;1.90;0.80;;;;;;;21.74;38.50;101963.72;21072623;28;20044;-65
2023/01/21 13:29:45;;;;;;;2.10;1.00;;;;;;;21.73;38.63;101989.91;21070769;28;20040;-65
2023/01/21 13:40:28;;;;;;;2.08;0.75;;;;;;;21.74;38.38;102002.72;21051937;28;20048;-66
2023/01/21 13:50:50;;;;;;;1.30;0.70;;;;;;;21.78;38.50;102012.25;21051411;28;20548;-66
2023/01/21 14:01:01;;;;;;;1.17;1.08;;;;;;;21.82;38.35;102026.50;21069191;28;20028;-66
2023/01/21 14:11:26;;;;;;;1.52;1.17;;;;;;;21.82;38.99;102044.06;21069854;28;20560;-66
2023/01/21 14:21:36;;;;;;;3.95;1.33;;;;;;;21.89;39.21;102065.31;21072597;28;20039;-66
2023/01/21 14:31:57;;;;;;;21.77;2.42;;;;;;;21.95;39.69;102078.22;21066965;28;20448;-66
2023/01/21 14:42:08;;;;;;;16.90;2.63;;;;;;;21.96;39.54;102082.69;21076842;28;20035;-65
2023/01/21 14:52:30;;;;;;;16.23;2.38;;;;;;;21.97;40.27;102106.66;21049785;28;20102;-65
2023/01/21 15:02:36;;;;;;;17.15;1.83;;;;;;;22.00;39.92;102117.28;21040495;28;20052;-64
2023/01/21 15:12:38;;;;;;;6.78;1.95;;;;;;;22.00;40.16;102128.44;21071068;28;20083;-65
2023/01/21 15:22:45;;;;;;;8.48;1.48;;;;;;;21.78;39.89;102093.06;21080023;28;20052;-64
2023/01/21 15:32:50;;;;;;;6.65;1.50;;;;;;;21.71;39.42;102077.63;21080128;28;20032;-63
2023/01/21 15:43:06;;;;;;;4.07;1.33;;;;;;;21.90;39.46;102115.22;21065857;28;20048;-63
2023/01/21 15:53:22;;;;;;;10.88;1.70;;;;;;;21.80;39.48;102104.75;21068979;28;20043;-63
2023/01/21 16:03:45;;;;;;;6.28;1.17;;;;;;;21.93;39.41;102116.63;21067631;28;20032;-64
2023/01/21 16:14:28;;;;;;;5.75;1.30;;;;;;;21.92;39.80;102092.66;21078677;28;20046;-64
2023/01/21 16:24:34;;;;;;;4.18;1.80;;;;;;;21.92;39.96;102103.81;21072929;28;20105;-65
2023/01/21 16:34:35;;;;;;;5.93;1.30;;;;;;;21.89;39.42;102104.31;21077127;28;20043;-63
2023/01/21 16:44:36;;;;;;;3.67;1.40;;;;;;;21.83;39.34;102109.84;21080552;28;20051;-63
2023/01/21 16:54:46;;;;;;;3.63;1.05;;;;;;;21.77;39.54;102108.09;21079972;28;20044;-63
2023/01/21 17:04:48;;;;;;;2.88;1.52;;;;;;;21.75;39.47;102087.97;21080044;28;20040;-63
2023/01/21 17:15:02;;;;;;;2.38;1.25;;;;;;;21.66;39.13;102072.81;21077828;28;20459;-63
2023/01/21 17:25:06;;;;;;;4.45;1.38;;;;;;;21.63;39.20;102073.38;21077195;28;20090;-63
2023/01/21 17:35:14;;;;;;;1.65;1.05;;;;;;;21.56;39.46;102067.97;21077506;28;20059;-63
2023/01/21 17:45:22;;;;;;;1.35;0.85;;;;;;;21.51;39.15;102075.41;21075787;28;20117;-63
2023/01/21 17:56:03;;;;;;;1.43;1.10;;;;;;;21.55;39.13;102065.44;21076066;28;20560;-62
2023/01/21 18:06:23;;;;;;;1.30;0.88;;;;;;;21.67;38.61;102065.31;21070851;28;20462;-63
2023/01/21 18:16:27;;;;;;;1.13;0.63;;;;;;;21.71;38.66;102064.53;21081830;28;20416;-64
2023/01/21 18:26:32;;;;;;;1.52;0.90;;;;;;;21.74;38.63;102066.81;21089093;28;20036;-64
2023/01/21 18:36:33;;;;;;;5.65;1.00;;;;;;;21.77;38.37;102069.09;21071362;28;20048;-64
2023/01/21 18:46:42;;;;;;;1.38;0.90;;;;;;;21.81;38.63;102070.25;21025700;28;20040;-63
2023/01/21 18:56:47;;;;;;;0.98;0.73;;;;;;;21.85;38.62;102072.50;21088223;28;20059;-63
2023/01/21 19:06:54;;;;;;;1.35;0.80;;;;;;;21.86;38.54;102077.00;21070637;28;20097;-63
2023/01/21 19:16:58;;;;;;;1.45;0.88;;;;;;;21.90;38.56;102067.84;21086519;28;20101;-62
2023/01/21 19:26:59;;;;;;;0.93;0.63;;;;;;;21.92;38.25;102084.31;21082133;28;20395;-63
2023/01/21 19:37:00;;;;;;;2.25;1.05;;;;;;;21.94;38.28;102102.44;21083931;28;20051;-63
2023/01/21 19:47:02;;;;;;;2.25;1.00;;;;;;;21.88;38.21;102085.91;21079835;28;20036;-63
2023/01/21 19:57:03;;;;;;;0.70;0.70;;;;;;;21.97;38.15;102120.59;21079236;28;20356;-63
2023/01/21 20:07:06;;;;;;;2.35;1.05;;;;;;;21.95;38.35;102126.44;21067684;28;20268;-64
2023/01/21 20:17:12;;;;;;;3.28;1.23;;;;;;;21.76;38.28;102089.69;21067970;28;20392;-64
2023/01/21 20:27:19;;;;;;;4.43;1.15;;;;;;;21.82;37.93;102087.81;21054055;28;20548;-63
2023/01/21 20:37:20;;;;;;;9.25;1.70;;;;;;;21.99;38.10;102132.31;21063136;28;20036;-64
2023/01/21 20:47:22;;;;;;;9.13;2.28;;;;;;;21.79;38.02;102122.59;21067186;28;20117;-64
2023/01/21 20:57:25;;;;;;;15.82;2.45;;;;;;;21.94;38.15;102152.59;21070697;28;20491;-64
2023/01/21 21:07:26;;;;;;;19.85;2.60;;;;;;;21.83;38.20;102151.63;21045316;28;20192;-63
2023/01/21 21:17:28;;;;;;;16.33;2.00;;;;;;;21.87;38.59;102162.28;21033891;28;20056;-63
2023/01/21 21:27:32;;;;;;;17.88;2.38;;;;;;;21.87;38.95;102173.41;21073525;28;20040;-63
2023/01/21 21:37:33;;;;;;;9.25;1.95;;;;;;;21.83;39.26;102170.28;21065340;28;20048;-64
2023/01/21 21:57:56;;;;;;;13.02;2.10;;;;;;;21.79;40.02;102167.16;21065740;28;20039;-64
2023/01/21 22:08:00;;;;;;;7.90;1.73;;;;;;;21.79;39.68;102171.91;21076315;28;20105;-64
2023/01/21 22:18:02;;;;;;;9.55;2.30;;;;;;;21.79;40.11;102178.31;21075489;28;20097;-64
2023/01/21 22:28:05;;;;;;;11.95;2.20;;;;;;;21.82;39.73;102185.34;21075110;28;20161;-62
2023/01/21 22:38:07;;;;;;;11.95;1.88;;;;;;;21.79;40.11;102206.19;21074295;28;20036;-62
2023/01/21 22:48:08;;;;;;;7.30;2.03;;;;;;;21.75;40.00;102216.16;21074086;28;20032;-63
2023/01/21 22:58:09;;;;;;;8.18;2.00;;;;;;;21.75;40.06;102229.25;21073682;28;20415;-62
2023/01/21 23:08:11;;;;;;;7.10;1.70;;;;;;;21.73;40.31;102240.66;21078877;28;20044;-63
2023/01/21 23:18:16;;;;;;;9.55;2.40;;;;;;;21.69;40.49;102256.19;21077711;28;20044;-63
2023/01/21 23:28:18;;;;;;;10.90;2.20;;;;;;;21.69;40.86;102267.31;21065349;28;20400;-63
2023/01/21 23:38:25;;;;;;;11.25;2.45;;;;;;;21.68;40.49;102281.53;21059702;28;20106;-63
2023/01/21 23:48:26;;;;;;;12.88;2.85;;;;;;;21.79;40.50;102284.19;21067765;28;20475;-64
2023/01/21 23:58:27;;;;;;;17.38;2.83;;;;;;;21.84;40.03;102300.16;21073662;28;20048;-62
